Time;durP1;ratioP1;P1;durP2;ratioP2;P2;SDS_P1;SDS_P2;PMS_P1;PMS_P2;Temp;Humidity;BMP_temperature;BMP_pressure;BME280_temperature;BME280_humidity;BME280_pressure;Samples;Min_cycle;Max_cycle;Signal;HPM_P1;HPM_P2
2023/04/10 00:00:29;;;;;;;8.57;6.40;;;;;;;10.50;32.32;101823.72;5066881;28;20048;-82
2023/04/10 00:02:58;;;;;;;8.05;5.95;;;;;;;10.49;32.46;101829.31;5066784;28;20036;-82
2023/04/10 00:05:27;;;;;;;7.60;5.63;;;;;;;10.46;31.93;101827.69;5065244;28;20074;-82
2023/04/10 00:07:55;;;;;;;8.88;6.18;;;;;;;10.46;32.04;101822.22;5066222;28;20051;-82
2023/04/10 00:10:25;;;;;;;8.13;5.90;;;;;;;10.46;32.44;101819.47;5065239;28;20052;-79
2023/04/10 00:12:54;;;;;;;8.52;6.20;;;;;;;10.44;32.08;101815.97;5069947;28;20047;-81
2023/04/10 00:15:23;;;;;;;8.18;5.75;;;;;;;10.43;32.24;101811.47;5064732;28;20105;-83
2023/04/10 00:17:54;;;;;;;8.20;5.97;;;;;;;10.43;32.49;101813.34;5068982;28;20522;-82
2023/04/10 00:20:22;;;;;;;8.50;6.20;;;;;;;10.40;32.56;101803.47;5087387;28;20044;-82
2023/04/10 00:22:50;;;;;;;8.35;6.28;;;;;;;10.39;32.58;101799.03;5082677;28;20029;-84
2023/04/10 00:25:18;;;;;;;8.43;6.00;;;;;;;10.37;32.64;101805.59;5068401;28;20058;-82
2023/04/10 00:27:47;;;;;;;8.02;5.72;;;;;;;10.36;32.12;101795.63;5070349;28;20040;-82
2023/04/10 00:30:18;;;;;;;7.75;5.60;;;;;;;10.32;32.66;101792.22;5068567;28;20277;-80
2023/04/10 00:32:45;;;;;;;7.57;6.10;;;;;;;10.32;32.80;101791.38;5069641;28;20042;-82
2023/04/10 00:35:14;;;;;;;9.90;5.85;;;;;;;10.32;32.40;101792.22;5069103;28;20062;-82
2023/04/10 00:37:42;;;;;;;7.28;5.68;;;;;;;10.31;32.86;101793.22;5072960;28;20056;-81
2023/04/10 00:40:11;;;;;;;8.05;6.03;;;;;;;10.31;32.42;101795.09;5073902;28;20056;-82
2023/04/10 00:42:39;;;;;;;7.95;5.85;;;;;;;10.31;32.95;101781.41;5070482;28;20498;-81
2023/04/10 00:45:10;;;;;;;7.47;5.53;;;;;;;10.32;32.85;101778.53;5071714;28;20399;-80
2023/04/10 00:47:39;;;;;;;8.55;6.10;;;;;;;10.31;32.77;101776.81;5074052;28;20084;-82
2023/04/10 00:50:08;;;;;;;7.05;5.35;;;;;;;10.32;32.67;101775.78;5094700;28;20036;-81
2023/04/10 00:52:36;;;;;;;7.65;5.95;;;;;;;10.31;32.88;101776.81;5076142;28;20052;-81
2023/04/10 00:55:05;;;;;;;7.30;5.43;;;;;;;10.32;32.92;101783.16;5074451;28;20036;-80
2023/04/10 00:57:34;;;;;;;8.10;5.70;;;;;;;10.31;32.80;101781.41;5073762;28;20044;-79
2023/04/10 01:00:05;;;;;;;7.88;5.95;;;;;;;10.32;32.50;101773.06;5080819;28;20071;-82
2023/04/10 01:02:35;;;;;;;7.60;5.97;;;;;;;10.30;33.08;101766.84;5089913;28;20052;-80
2023/04/10 01:05:03;;;;;;;7.65;6.22;;;;;;;10.25;32.76;101760.81;5088464;28;20547;-81
2023/04/10 01:07:49;;;;;;;9.55;6.22;;;;;;;10.29;32.76;101764.22;5071632;28;20127;-81
2023/04/10 01:10:25;;;;;;;7.85;5.75;;;;;;;10.26;32.55;101765.31;5086144;28;20055;-80
2023/04/10 01:13:04;;;;;;;9.02;6.32;;;;;;;10.27;32.95;101766.19;5074615;28;20131;-81
2023/04/10 01:15:42;;;;;;;8.02;6.05;;;;;;;10.24;32.57;101762.66;5070005;28;20060;-81
2023/04/10 01:18:19;;;;;;;9.48;6.22;;;;;;;10.23;32.46;101754.59;5074536;28;20044;-80
2023/04/10 01:20:47;;;;;;;8.38;6.20;;;;;;;10.19;32.81;101753.06;5071522;28;20504;-81
2023/04/10 01:23:51;;;;;;;8.68;6.50;;;;;;;10.15;32.69;101752.38;5091889;28;20036;-81
2023/04/10 01:26:39;;;;;;;8.80;6.20;;;;;;;10.14;33.00;101742.47;5073121;28;20101;-81
2023/04/10 01:29:14;;;;;;;8.15;6.20;;;;;;;10.11;33.17;101745.41;5072888;28;20052;-80
2023/04/10 01:31:49;;;;;;;9.45;6.82;;;;;;;10.11;32.62;101750.00;5072099;28;20063;-80
2023/04/10 01:34:20;;;;;;;8.13;5.90;;;;;;;10.08;33.19;101745.59;5069987;28;20611;-80
2023/04/10 01:36:53;;;;;;;8.93;6.35;;;;;;;10.06;33.20;101742.13;5088489;28;20368;-83
2023/04/10 01:39:22;;;;;;;8.52;6.43;;;;;;;10.02;32.73;101731.50;5094181;28;20045;-83
2023/04/10 01:41:52;;;;;;;9.15;6.90;;;;;;;10.03;33.21;101730.53;5068881;28;20048;-83
2023/04/10 01:44:29;;;;;;;8.23;6.25;;;;;;;10.01;33.18;101736.09;5078825;28;20032;-82
2023/04/10 01:46:59;;;;;;;10.02;6.95;;;;;;;9.99;33.17;101723.53;5072572;28;20087;-83
2023/04/10 01:49:28;;;;;;;8.95;6.50;;;;;;;9.98;33.33;101725.41;5074864;28;20055;-83
2023/04/10 01:52:05;;;;;;;8.90;6.68;;;;;;;9.96;33.01;101715.53;5076370;28;20118;-83
2023/04/10 01:54:35;;;;;;;8.57;6.50;;;;;;;9.94;33.38;101714.78;5097445;28;20040;-82
2023/04/10 01:57:05;;;;;;;9.45;7.18;;;;;;;9.94;32.98;101714.78;5073306;28;20055;-81
2023/04/10 01:59:45;;;;;;;9.60;6.90;;;;;;;9.93;33.24;101710.28;5072517;28;20086;-81
2023/04/10 02:02:13;;;;;;;9.20;6.60;;;;;;;9.91;33.24;101710.38;5071521;28;20055;-83
2023/04/10 02:04:41;;;;;;;8.32;6.50;;;;;;;9.92;33.47;101706.66;5073166;28;20440;-81
2023/04/10 02:07:13;;;;;;;7.40;5.90;;;;;;;9.93;33.22;101707.53;5090074;28;20054;-81
2023/04/10 02:09:48;;;;;;;9.65;6.60;;;;;;;9.91;33.66;101702.19;5089880;28;20123;-82
2023/04/10 02:12:18;;;;;;;7.90;6.53;;;;;;;9.90;33.70;101705.94;5070402;28;20586;-82
2023/04/10 02:14:50;;;;;;;8.13;6.10;;;;;;;9.91;33.79;101710.38;5074015;28;20329;-86
2023/04/10 02:17:23;;;;;;;9.02;6.90;;;;;;;9.89;33.70;101706.03;5066571;23;20040;-72
2023/04/10 02:19:54;;;;;;;9.27;6.72;;;;;;;9.91;33.42;101695.84;5046473;28;20053;-72
2023/04/10 02:22:24;;;;;;;9.43;6.68;;;;;;;9.90;33.24;101685.91;5048151;28;20113;-73
2023/04/10 02:24:52;;;;;;;9.15;7.22;;;;;;;9.87;33.53;101697.06;5075149;28;20430;-74
2023/04/10 02:27:28;;;;;;;9.68;7.18;;;;;;;9.88;33.78;101693.34;5084490;28;20036;-73
2023/04/10 02:29:58;;;;;;;8.20;6.65;;;;;;;9.83;33.29;101700.00;5067572;28;20079;-73
2023/04/10 02:32:26;;;;;;;8.93;6.82;;;;;;;9.81;33.56;101699.25;5063595;28;20048;-72
2023/04/10 02:34:55;;;;;;;8.77;6.47;;;;;;;9.78;33.29;101710.41;5070941;28;20079;-72
2023/04/10 02:37:23;;;;;;;8.15;5.90;;;;;;;9.79;33.36;101712.16;5063903;28;20040;-71
2023/04/10 02:39:53;;;;;;;8.98;6.60;;;;;;;9.78;33.60;101701.31;5063396;28;20043;-73
2023/04/10 02:42:23;;;;;;;9.68;6.70;;;;;;;9.76;33.86;101703.28;5064284;28;20170;-75
2023/04/10 02:44:53;;;;;;;8.85;6.07;;;;;;;9.77;33.66;101694.97;5057687;28;20372;-74
2023/04/10 02:47:23;;;;;;;7.80;6.22;;;;;;;9.78;33.43;101701.31;5065256;28;20572;-75
2023/04/10 02:49:51;;;;;;;8.88;6.32;;;;;;;9.77;33.92;101694.97;5063644;28;20461;-74
2023/04/10 02:52:20;;;;;;;9.25;6.50;;;;;;;9.75;33.69;101691.47;5066692;28;20413;-72
2023/04/10 02:54:48;;;;;;;8.70;6.43;;;;;;;9.75;34.10;101691.47;5083239;28;20036;-73
2023/04/10 02:57:16;;;;;;;9.88;7.07;;;;;;;9.74;34.01;101688.88;5063894;28;20052;-72
2023/04/10 02:59:44;;;;;;;9.35;6.88;;;;;;;9.74;33.99;101691.59;5082466;28;20079;-74
2023/04/10 03:02:12;;;;;;;8.70;6.35;;;;;;;9.74;34.01;101686.13;5081185;28;20461;-73
2023/04/10 03:04:42;;;;;;;9.20;6.70;;;;;;;9.74;34.07;101684.25;5066145;28;20044;-73
2023/04/10 03:07:10;;;;;;;8.45;6.50;;;;;;;9.72;34.06;101688.09;5086836;28;20526;-72
2023/04/10 03:09:39;;;;;;;8.30;6.35;;;;;;;9.70;33.73;101680.00;5064883;28;20059;-72
2023/04/10 03:12:06;;;;;;;8.98;6.55;;;;;;;9.68;33.56;101686.53;5059763;28;20095;-72
2023/04/10 03:14:34;;;;;;;9.40;6.70;;;;;;;9.67;33.47;101672.00;5064843;28;20044;-73
2023/04/10 03:17:02;;;;;;;10.00;6.50;;;;;;;9.64;34.10;101669.50;5080479;28;20403;-73
2023/04/10 03:19:31;;;;;;;9.82;7.18;;;;;;;9.59;34.13;101668.94;5063901;28;20043;-75
2023/04/10 03:22:01;;;;;;;9.10;6.72;;;;;;;9.61;34.20;101658.78;5066011;28;20056;-72
2023/04/10 03:24:29;;;;;;;9.35;7.25;;;;;;;9.55;33.75;101652.88;5066779;28;20032;-74
2023/04/10 03:26:57;;;;;;;11.07;7.10;;;;;;;9.55;34.14;101656.50;5063548;28;20414;-74
2023/04/10 03:29:25;;;;;;;10.02;6.65;;;;;;;9.53;34.16;101649.38;5065456;28;20130;-73
2023/04/10 03:31:56;;;;;;;10.20;6.97;;;;;;;9.53;34.16;101642.06;5065164;28;20073;-72
2023/04/10 03:34:25;;;;;;;9.13;6.78;;;;;;;9.51;34.27;101641.28;5065252;28;20040;-73
2023/04/10 03:36:53;;;;;;;7.80;6.45;;;;;;;9.52;34.37;101642.16;5065033;28;20044;-73
2023/04/10 03:39:23;;;;;;;8.88;7.00;;;;;;;9.53;34.44;101630.25;5068124;28;20051;-73
2023/04/10 03:41:51;;;;;;;8.50;6.25;;;;;;;9.52;34.28;101632.09;5079783;28;20054;-73
2023/04/10 03:44:19;;;;;;;8.45;5.97;;;;;;;9.53;34.50;101635.72;5068004;28;20054;-73
2023/04/10 03:46:47;;;;;;;8.48;6.50;;;;;;;9.51;34.03;101627.63;5061509;28;20113;-73
2023/04/10 03:49:15;;;;;;;9.00;6.40;;;;;;;9.52;33.96;101631.22;5064745;28;20050;-74
2023/04/10 03:51:43;;;;;;;9.48;6.35;;;;;;;9.50;33.96;101625.88;5066454;28;20435;-73
2023/04/10 03:54:11;;;;;;;10.15;7.10;;;;;;;9.50;34.35;101623.13;5067419;28;20051;-73
2023/04/10 03:56:40;;;;;;;8.98;6.90;;;;;;;9.50;34.46;101625.00;5064248;28;20047;-72
2023/04/10 03:59:08;;;;;;;9.25;6.90;;;;;;;9.48;34.09;101625.13;5064608;28;20040;-73
2023/04/10 04:01:39;;;;;;;10.77;6.85;;;;;;;9.45;34.31;101618.00;5062458;28;20059;-73
2023/04/10 04:04:10;;;;;;;9.52;6.18;;;;;;;9.44;34.03;101627.19;5062719;28;20044;-73
2023/04/10 04:07:09;;;;;;;7.50;5.47;;;;;;;9.42;34.39;101628.25;5060446;28;20146;-72
2023/04/10 04:09:50;;;;;;;9.38;6.13;;;;;;;9.40;34.70;101628.41;5066056;28;20059;-73
2023/04/10 04:12:26;;;;;;;8.77;6.53;;;;;;;9.43;34.34;101621.81;5071469;28;20070;-72
2023/04/10 04:15:09;;;;;;;8.80;6.32;;;;;;;9.41;34.49;101615.63;5063714;28;20044;-72
2023/04/10 04:17:46;;;;;;;8.07;5.85;;;;;;;9.40;34.67;101622.06;5090208;28;20158;-73
2023/04/10 04:20:37;;;;;;;7.85;5.30;;;;;;;9.39;34.15;101615.72;5076195;28;20044;-73
2023/04/10 04:23:16;;;;;;;7.63;6.20;;;;;;;9.40;34.77;101616.59;5068067;28;20044;-73
2023/04/10 04:26:02;;;;;;;8.70;5.97;;;;;;;9.39;34.23;101625.78;5088239;28;20128;-73
2023/04/10 04:28:54;;;;;;;8.00;5.50;;;;;;;9.38;34.33;101613.97;5085849;28;20126;-73
2023/04/10 04:31:40;;;;;;;8.40;5.47;;;;;;;9.38;34.58;101619.44;5069231;28;20044;-73
2023/04/10 04:34:26;;;;;;;8.43;5.28;;;;;;;9.38;34.27;101610.31;5069274;28;20469;-73
2023/04/10 04:37:26;;;;;;;7.07;5.57;;;;;;;9.37;34.27;101606.72;5049827;28;20056;-73
2023/04/10 04:40:14;;;;;;;8.18;5.72;;;;;;;9.37;34.65;101600.38;5068941;28;20060;-72
2023/04/10 04:43:00;;;;;;;7.13;5.47;;;;;;;9.36;34.72;101595.88;5087826;28;20599;-73
2023/04/10 04:45:48;;;;;;;8.52;6.07;;;;;;;9.36;34.61;101599.50;5085356;28;20067;-73
2023/04/10 04:48:31;;;;;;;7.80;5.75;;;;;;;9.34;34.23;101601.47;5067780;28;20047;-73
2023/04/10 04:51:25;;;;;;;7.55;5.20;;;;;;;9.32;34.62;101592.53;5080192;28;20095;-72
2023/04/10 04:54:15;;;;;;;7.47;5.07;;;;;;;9.31;34.21;101607.16;5086095;28;20313;-73
2023/04/10 04:57:15;;;;;;;8.35;5.78;;;;;;;9.30;34.53;101607.25;5048953;28;20040;-73
2023/04/10 05:00:06;;;;;;;8.65;5.40;;;;;;;9.32;34.61;101610.75;5083013;28;20056;-73
2023/04/10 05:02:54;;;;;;;7.70;5.38;;;;;;;9.31;34.68;101609.88;5085322;28;20113;-73
2023/04/10 05:05:28;;;;;;;7.05;5.07;;;;;;;9.30;34.35;101599.06;5087683;28;20052;-73
2023/04/10 05:08:34;;;;;;;7.38;5.45;;;;;;;9.28;34.67;101609.22;5014317;28;20512;-73
2023/04/10 05:11:23;;;;;;;7.40;5.50;;;;;;;9.26;34.58;101609.31;5008699;28;20057;-73
2023/04/10 05:14:14;;;;;;;8.40;5.65;;;;;;;9.28;34.27;101601.03;5036468;28;20044;-72
2023/04/10 05:16:58;;;;;;;7.45;5.38;;;;;;;9.27;34.29;101605.59;5067458;28;20157;-73
2023/04/10 05:19:48;;;;;;;6.70;4.65;;;;;;;9.30;34.72;101610.88;5086043;28;20051;-73
2023/04/10 05:22:39;;;;;;;7.40;4.95;;;;;;;9.29;34.69;101609.09;5067848;28;20147;-73
2023/04/10 05:25:16;;;;;;;6.97;5.30;;;;;;;9.32;34.87;101610.75;5084866;28;20519;-71
2023/04/10 05:28:01;;;;;;;7.22;4.88;;;;;;;9.31;34.46;101612.63;5067978;28;20125;-72
2023/04/10 05:30:56;;;;;;;9.60;5.70;;;;;;;9.32;34.36;101608.91;5065491;28;20040;-72
2023/04/10 05:33:44;;;;;;;7.90;5.38;;;;;;;9.34;34.70;101612.38;5085838;28;20063;-72
2023/04/10 05:36:27;;;;;;;8.05;5.20;;;;;;;9.38;34.34;101618.50;5071692;28;20055;-73
2023/04/10 05:39:08;;;;;;;8.05;5.53;;;;;;;9.38;34.74;101621.25;5066773;28;20048;-72
2023/04/10 05:41:59;;;;;;;7.60;5.03;;;;;;;9.40;34.63;101616.59;5074782;28;20523;-73
2023/04/10 05:44:47;;;;;;;7.35;5.50;;;;;;;9.43;34.80;101624.56;5082829;28;20052;-72
2023/04/10 05:47:37;;;;;;;9.50;6.00;;;;;;;9.44;34.76;101618.09;5067646;28;20055;-72
2023/04/10 05:50:20;;;;;;;6.65;4.57;;;;;;;9.47;34.59;101612.44;5067581;28;20047;-74
2023/04/10 05:52:59;;;;;;;9.60;5.47;;;;;;;9.52;34.88;101610.25;5092442;28;20036;-74
2023/04/10 05:56:00;;;;;;;6.72;4.65;;;;;;;9.53;34.65;101609.25;5074714;28;20048;-74
2023/04/10 05:58:45;;;;;;;8.25;5.43;;;;;;;9.58;34.80;101609.78;5068178;28;20056;-73
2023/04/10 06:01:39;;;;;;;7.45;5.22;;;;;;;9.63;34.62;101606.75;5067155;28;20055;-74
2023/04/10 06:04:08;;;;;;;6.72;5.13;;;;;;;9.68;35.05;101604.53;5064004;28;20040;-74
2023/04/10 06:06:37;;;;;;;7.72;5.35;;;;;;;9.72;34.42;101603.34;5067482;28;20507;-74
2023/04/10 06:09:06;;;;;;;7.82;4.90;;;;;;;9.78;34.72;101611.09;5086570;28;20070;-74
2023/04/10 06:11:34;;;;;;;7.13;5.10;;;;;;;9.81;35.08;101599.97;5070121;28;20044;-74
2023/04/10 06:14:03;;;;;;;8.43;5.10;;;;;;;9.88;34.60;101601.25;5068503;28;20521;-73
2023/04/10 06:16:37;;;;;;;8.48;5.55;;;;;;;9.94;34.63;101586.25;5082941;28;20601;-74
2023/04/10 06:19:06;;;;;;;7.20;5.30;;;;;;;10.01;34.80;101596.63;5061923;28;20142;-76
2023/04/10 06:21:35;;;;;;;7.35;5.45;;;;;;;10.09;34.35;101593.31;5066814;28;20079;-76
2023/04/10 06:24:04;;;;;;;7.70;5.05;;;;;;;10.14;34.14;101583.81;5067106;28;20040;-77
2023/04/10 06:26:33;;;;;;;7.35;5.22;;;;;;;10.21;34.61;101586.94;5084909;28;20500;-76
2023/04/10 06:29:03;;;;;;;7.88;5.80;;;;;;;10.28;34.50;101595.56;5069633;28;20040;-75
2023/04/10 06:31:33;;;;;;;7.63;5.05;;;;;;;10.36;34.51;101587.66;5064157;28;20070;-76
2023/04/10 06:34:03;;;;;;;7.22;5.20;;;;;;;10.42;34.36;101593.53;5067216;28;20105;-74
2023/04/10 06:36:31;;;;;;;7.40;5.30;;;;;;;10.47;34.45;101595.94;5072175;28;20474;-74
2023/04/10 06:39:03;;;;;;;8.20;4.93;;;;;;;10.53;34.00;101599.13;5067401;28;20051;-76
2023/04/10 06:41:32;;;;;;;6.65;4.88;;;;;;;10.63;34.22;101595.69;5064586;28;20612;-76
2023/04/10 06:44:13;;;;;;;7.05;4.80;;;;;;;10.70;34.45;101591.47;5072974;28;20048;-75
2023/04/10 06:46:41;;;;;;;6.18;4.90;;;;;;;10.77;33.81;101592.75;5069608;28;20052;-76
2023/04/10 06:49:09;;;;;;;7.50;5.38;;;;;;;10.88;33.82;101590.06;5070612;28;20036;-77
2023/04/10 06:51:36;;;;;;;7.65;5.05;;;;;;;10.95;33.91;101586.75;5066097;28;20075;-73
2023/04/10 06:54:04;;;;;;;7.45;5.55;;;;;;;10.99;33.97;101581.88;5069249;28;20401;-76
2023/04/10 06:56:34;;;;;;;8.13;5.15;;;;;;;11.11;33.39;101591.03;5084026;28;20509;-74
2023/04/10 06:59:02;;;;;;;7.00;4.90;;;;;;;11.16;34.03;101588.78;5067957;28;20058;-74
2023/04/10 07:01:30;;;;;;;7.10;4.63;;;;;;;11.22;34.03;101589.19;5082172;28;20056;-73
2023/04/10 07:03:57;;;;;;;7.70;5.43;;;;;;;11.31;33.96;101584.81;5071187;28;20036;-74
2023/04/10 07:06:26;;;;;;;7.28;5.35;;;;;;;11.36;33.55;101582.59;5086191;28;20047;-76
2023/04/10 07:08:54;;;;;;;8.25;5.57;;;;;;;11.43;33.42;101572.91;5066363;28;20402;-74
2023/04/10 07:11:22;;;;;;;7.20;4.90;;;;;;;11.51;33.77;101586.00;5064537;28;20507;-75
2023/04/10 07:13:52;;;;;;;6.88;5.07;;;;;;;11.59;33.38;101570.66;5082036;28;20093;-73
2023/04/10 07:16:20;;;;;;;7.40;5.30;;;;;;;11.65;33.28;101564.72;5063275;28;20044;-75
2023/04/10 07:18:48;;;;;;;6.97;4.90;;;;;;;11.72;33.46;101563.22;5080620;28;20040;-75
2023/04/10 07:21:16;;;;;;;7.28;5.10;;;;;;;11.83;33.10;101556.00;5082559;28;20057;-75
2023/04/10 07:23:44;;;;;;;7.32;5.20;;;;;;;11.91;33.15;101557.09;5079527;28;20050;-76
2023/04/10 07:26:12;;;;;;;7.18;4.85;;;;;;;11.99;33.42;101557.34;5083914;28;20048;-75
2023/04/10 07:28:40;;;;;;;6.85;4.85;;;;;;;12.07;32.56;101556.72;5067312;28;20514;-75
2023/04/10 07:31:09;;;;;;;6.40;5.15;;;;;;;12.15;32.72;101558.81;5056650;28;20083;-75
2023/04/10 07:33:37;;;;;;;7.18;5.10;;;;;;;12.21;32.27;101558.31;5063874;28;20048;-77
2023/04/10 07:36:06;;;;;;;6.82;5.18;;;;;;;12.24;31.94;101558.03;5062942;28;20058;-77
2023/04/10 07:38:34;;;;;;;8.23;5.07;;;;;;;12.26;31.99;101550.56;5084518;28;20063;-74
2023/04/10 07:41:02;;;;;;;7.00;5.07;;;;;;;12.29;31.75;101547.56;5081008;28;20122;-77
2023/04/10 07:43:30;;;;;;;6.47;4.78;;;;;;;12.30;31.61;101555.66;5083628;28;21194;-77
2023/04/10 07:45:58;;;;;;;7.13;5.20;;;;;;;12.32;31.93;101544.56;5071679;28;20044;-81
2023/04/10 07:48:27;;;;;;;6.78;4.43;;;;;;;12.33;31.72;101532.56;5072764;28;20062;-80
2023/04/10 07:50:55;;;;;;;6.82;5.20;;;;;;;12.33;31.66;101530.72;5090904;28;20040;-81
2023/04/10 07:53:24;;;;;;;6.85;4.72;;;;;;;12.35;31.98;101533.31;5077190;28;20090;-78
2023/04/10 07:55:52;;;;;;;7.97;4.93;;;;;;;12.35;31.47;101523.22;5093644;28;20054;-81
2023/04/10 07:58:21;;;;;;;6.45;4.65;;;;;;;12.39;31.52;101523.81;5081085;28;20036;-81
2023/04/10 08:00:50;;;;;;;6.60;4.63;;;;;;;12.40;31.84;101531.06;5083627;28;20147;-81
2023/04/10 08:03:18;;;;;;;6.47;4.13;;;;;;;12.41;31.82;101527.31;5075248;28;20040;-78
2023/04/10 08:05:48;;;;;;;6.20;4.32;;;;;;;12.46;31.82;101514.03;5092398;28;20054;-79
2023/04/10 08:08:16;;;;;;;7.03;4.20;;;;;;;12.48;31.66;101503.81;5078972;28;20632;-73
2023/04/10 08:10:44;;;;;;;5.25;3.78;;;;;;;12.51;31.84;101520.03;5089492;28;20071;-77
2023/04/10 08:13:12;;;;;;;6.10;4.13;;;;;;;12.56;31.65;101505.91;5062586;28;20044;-76
2023/04/10 08:15:40;;;;;;;6.32;4.22;;;;;;;12.61;31.66;101503.66;5084471;28;20052;-74
2023/04/10 08:18:08;;;;;;;6.15;4.40;;;;;;;12.64;31.77;101520.75;5076445;23;20410;-65
2023/04/10 08:20:36;;;;;;;6.18;4.18;;;;;;;12.67;31.28;101498.53;5033553;28;20052;-65
2023/04/10 08:23:05;;;;;;;5.68;4.30;;;;;;;12.73;31.01;101500.72;5059298;28;20040;-66
2023/04/10 08:25:39;;;;;;;5.43;4.05;;;;;;;12.75;31.16;101496.00;5064955;28;20058;-66
2023/04/10 08:28:07;;;;;;;5.88;4.10;;;;;;;12.78;30.91;101498.47;5059497;28;20040;-67
2023/04/10 08:30:35;;;;;;;6.05;4.13;;;;;;;12.81;31.42;101494.56;5057623;28;20131;-70
2023/04/10 08:33:03;;;;;;;6.85;4.35;;;;;;;12.84;31.24;101486.94;5064513;28;20120;-66
2023/04/10 08:35:31;;;;;;;6.80;4.25;;;;;;;12.87;31.24;101483.91;5059938;28;20352;-66
2023/04/10 08:37:59;;;;;;;5.95;4.35;;;;;;;12.90;30.94;101473.66;5061290;28;20094;-67
2023/04/10 08:40:43;;;;;;;7.13;4.47;;;;;;;12.92;30.68;101468.91;5061919;28;20049;-66
2023/04/10 08:43:11;;;;;;;5.22;3.85;;;;;;;12.94;30.98;101467.78;5057645;28;20040;-68
2023/04/10 08:45:40;;;;;;;7.03;4.53;;;;;;;12.97;30.51;101483.13;5061521;28;20047;-65
2023/04/10 08:48:11;;;;;;;5.95;3.78;;;;;;;12.98;30.70;101457.38;5055516;28;20128;-67
2023/04/10 08:50:42;;;;;;;5.88;3.65;;;;;;;13.01;30.42;101451.63;5044573;28;20951;-64
2023/04/10 08:53:12;;;;;;;5.03;3.75;;;;;;;13.02;30.48;101447.88;5064149;28;20044;-67
2023/04/10 08:55:42;;;;;;;5.38;3.78;;;;;;;13.03;30.24;101435.88;5062261;28;20402;-68
2023/04/10 08:58:12;;;;;;;5.70;4.18;;;;;;;13.02;30.15;101442.38;5042455;28;20049;-66
2023/04/10 09:00:40;;;;;;;5.28;3.80;;;;;;;13.01;30.62;101436.00;5064425;28;20041;-71
2023/04/10 09:03:10;;;;;;;5.78;3.78;;;;;;;13.03;30.67;101439.50;5080035;28;20036;-68
2023/04/10 09:05:38;;;;;;;5.38;3.83;;;;;;;13.03;30.47;101430.38;5074170;28;20040;-72
2023/04/10 09:08:08;;;;;;;5.25;3.95;;;;;;;13.04;30.17;101418.34;5064920;28;20051;-69
2023/04/10 09:10:35;;;;;;;6.60;3.80;;;;;;;13.05;30.78;101425.59;5052466;28;20056;-68
2023/04/10 09:13:05;;;;;;;4.90;3.40;;;;;;;13.08;30.40;101430.84;5071223;28;20036;-71
2023/04/10 09:15:55;;;;;;;5.28;3.75;;;;;;;13.08;30.04;101433.59;5058617;28;20138;-69
2023/04/10 09:18:41;;;;;;;5.20;3.47;;;;;;;13.14;29.98;101435.78;5067029;28;20040;-70
2023/04/10 09:21:10;;;;;;;4.75;3.25;;;;;;;13.20;30.58;101435.25;5066658;28;20056;-70
2023/04/10 09:23:38;;;;;;;5.00;3.65;;;;;;;13.24;30.56;101436.69;5063685;28;20124;-67
2023/04/10 09:26:22;;;;;;;4.55;3.15;;;;;;;13.32;30.00;101442.38;5056772;28;20499;-71
2023/04/10 09:29:00;;;;;;;5.50;3.47;;;;;;;13.40;30.18;101445.31;5049831;28;20423;-67
2023/04/10 09:31:33;;;;;;;4.57;3.17;;;;;;;13.47;30.45;101445.63;5047148;28;20515;-67
2023/04/10 09:34:08;;;;;;;4.53;3.30;;;;;;;13.56;29.85;101439.28;5050311;28;20036;-68
2023/04/10 09:36:36;;;;;;;4.88;3.45;;;;;;;13.59;30.49;101450.91;5065447;28;20056;-68
2023/04/10 09:39:05;;;;;;;4.38;3.13;;;;;;;13.67;30.20;101454.84;5066836;28;20059;-72
2023/04/10 09:41:33;;;;;;;4.82;3.28;;;;;;;13.71;30.18;101440.66;5061267;28;20041;-68
2023/04/10 09:44:10;;;;;;;4.45;3.13;;;;;;;13.80;28.85;101414.19;5070264;28;20036;-68
2023/04/10 09:46:38;;;;;;;5.10;3.30;;;;;;;13.80;29.87;101406.81;5064476;28;20052;-70
2023/04/10 09:49:06;;;;;;;4.85;3.22;;;;;;;13.85;29.50;101409.16;5049692;28;20547;-69
2023/04/10 09:51:36;;;;;;;4.20;3.00;;;;;;;13.90;29.24;101415.06;5047145;28;20068;-68
2023/04/10 09:54:04;;;;;;;5.18;3.25;;;;;;;13.91;29.33;101420.44;5064262;28;20161;-67
2023/04/10 09:56:38;;;;;;;3.90;2.65;;;;;;;13.97;28.18;101413.50;5062191;28;20558;-69
2023/04/10 09:59:08;;;;;;;4.60;2.75;;;;;;;13.97;28.64;101403.34;5073941;28;20047;-69
2023/04/10 10:01:39;;;;;;;4.45;2.60;;;;;;;14.02;28.90;101399.31;5076303;28;20083;-69
2023/04/10 10:04:08;;;;;;;4.20;2.83;;;;;;;14.02;28.55;101413.94;5058627;28;20051;-72
2023/04/10 10:06:39;;;;;;;3.88;2.85;;;;;;;14.08;28.69;101390.47;5067571;28;20391;-70
2023/04/10 10:09:07;;;;;;;4.22;2.83;;;;;;;14.08;28.59;101384.97;5064767;28;20044;-73
2023/04/10 10:11:36;;;;;;;5.10;2.80;;;;;;;14.12;28.32;101379.00;5067212;28;20055;-72
2023/04/10 10:14:12;;;;;;;3.67;2.53;;;;;;;14.18;28.03;101380.34;5057779;28;20078;-69
2023/04/10 10:16:45;;;;;;;4.40;2.90;;;;;;;14.22;28.46;101379.88;5063990;28;20048;-70
2023/04/10 10:19:19;;;;;;;;;;;;;;;13.95;28.37;101369.59;5056415;28;20085;-72
2023/04/10 10:21:47;;;;;;;4.00;2.75;;;;;;;14.28;29.00;101367.41;5069249;28;20011;-72
2023/04/10 10:24:16;;;;;;;4.00;2.47;;;;;;;14.38;28.17;101358.13;5072474;28;20040;-72
2023/04/10 10:26:47;;;;;;;4.18;2.47;;;;;;;14.47;28.52;101352.75;5062799;28;20050;-72
2023/04/10 10:29:17;;;;;;;4.22;2.60;;;;;;;14.54;28.00;101345.66;5068343;28;20055;-69
2023/04/10 10:31:46;;;;;;;4.38;2.50;;;;;;;14.58;28.08;101342.50;5060936;28;20044;-70
2023/04/10 10:34:16;;;;;;;3.97;2.70;;;;;;;14.64;27.71;101336.38;5063695;28;20064;-70
2023/04/10 10:36:43;;;;;;;4.18;2.75;;;;;;;14.67;27.38;101321.44;5064507;28;20055;-73
2023/04/10 10:39:28;;;;;;;3.95;2.70;;;;;;;14.73;26.45;101323.59;5069156;28;20032;-70
2023/04/10 10:42:05;;;;;;;3.80;2.47;;;;;;;14.76;26.94;101315.88;5064033;28;20480;-70
2023/04/10 10:44:42;;;;;;;4.72;2.70;;;;;;;14.82;27.02;101310.81;5063075;28;20045;-69
2023/04/10 10:47:15;;;;;;;3.97;2.55;;;;;;;14.84;26.97;101292.22;5064413;28;20047;-69
2023/04/10 10:49:56;;;;;;;4.15;2.85;;;;;;;14.84;26.32;101290.34;5062578;28;20041;-68
2023/04/10 10:52:43;;;;;;;4.65;2.80;;;;;;;14.85;26.63;101281.03;5064430;28;20118;-71
2023/04/10 10:55:31;;;;;;;3.70;2.60;;;;;;;14.87;26.07;101280.88;5068518;28;20135;-72
2023/04/10 10:58:01;;;;;;;3.70;2.50;;;;;;;14.89;26.95;101271.47;5061428;28;20048;-70
2023/04/10 11:01:02;;;;;;;4.20;2.85;;;;;;;14.91;26.12;101263.91;5070538;28;20114;-71
2023/04/10 11:03:31;;;;;;;4.72;2.97;;;;;;;14.92;27.26;101254.63;5060239;28;20495;-68
2023/04/10 11:06:01;;;;;;;4.32;2.95;;;;;;;14.96;26.71;101252.41;5062258;28;20044;-72
2023/04/10 11:08:44;;;;;;;5.03;2.75;;;;;;;14.98;26.54;101265.03;5067023;28;20036;-66
2023/04/10 11:11:16;;;;;;;4.47;2.90;;;;;;;14.98;26.27;101248.50;5068412;28;20040;-72
2023/04/10 11:14:16;;;;;;;4.03;2.45;;;;;;;15.01;26.05;101242.66;5063979;28;20099;-66
2023/04/10 11:16:47;;;;;;;3.83;2.42;;;;;;;15.01;26.90;101228.88;5048087;28;20044;-70
2023/04/10 11:19:20;;;;;;;4.05;2.70;;;;;;;15.05;26.58;101232.19;5066453;28;20730;-70
2023/04/10 11:22:04;;;;;;;3.70;2.40;;;;;;;15.09;26.36;101230.88;5040387;28;20520;-70
2023/04/10 11:24:56;;;;;;;3.40;2.28;;;;;;;15.07;26.17;101242.06;5044785;28;20048;-71
2023/04/10 11:27:48;;;;;;;3.53;2.35;;;;;;;15.07;25.88;101222.75;5062499;28;20430;-71
2023/04/10 11:30:26;;;;;;;4.03;2.63;;;;;;;15.10;26.21;101225.19;5058159;28;20095;-70
2023/04/10 11:32:55;;;;;;;4.10;2.28;;;;;;;15.14;26.38;101215.59;5054123;28;20074;-72
2023/04/10 11:35:25;;;;;;;3.63;2.35;;;;;;;15.19;26.05;101206.84;5066346;28;20214;-71
2023/04/10 11:38:08;;;;;;;3.42;2.28;;;;;;;15.21;25.56;101210.31;5050002;28;20658;-71
2023/04/10 11:40:53;;;;;;;3.70;2.47;;;;;;;15.22;25.45;101208.44;5059912;28;20056;-71
2023/04/10 11:43:21;;;;;;;3.70;2.38;;;;;;;15.24;26.17;101200.88;5041056;28;20055;-70
2023/04/10 11:45:49;;;;;;;3.40;2.20;;;;;;;15.27;26.08;101198.66;5061407;28;20076;-70
2023/04/10 11:48:17;;;;;;;4.05;2.50;;;;;;;15.29;26.20;101198.50;5061367;28;20048;-70
2023/04/10 11:50:46;;;;;;;3.60;2.40;;;;;;;15.32;25.94;101187.19;5066517;28;20041;-72
2023/04/10 11:53:21;;;;;;;3.40;2.17;;;;;;;15.33;25.68;101176.00;5067635;28;20049;-71
2023/04/10 11:55:49;;;;;;;3.35;2.20;;;;;;;15.32;26.10;101177.03;5061060;28;20098;-72
2023/04/10 11:58:24;;;;;;;4.57;2.50;;;;;;;15.36;25.78;101181.22;5066487;28;20059;-70